Aeroporto :
LOGIN :

Iscrizione | Disclaimer

   EN    FR    IT 

 










Sommario :    VFR   VFR Marginale   IFR   IFR Intensivo   IFR Molto Intensivo
Visibilità : 
Base nubi : 
>= 8 km
>= 3000ft
5 / 8 km
1000 / 3000 ft
1500m / 5 km
500 / 1000 ft
800 / 1500m
200 / 500 ft
< 800m
< 200 ft
Simboli :   Temporali  Nebbia  Neve Forte  Precipitazioni Forti  Vento > 20 kt
SIGMETs :   Varie  Temporali  Ghiacco  Turbolenza  Onda orograficha  Ceneri Vulcaniche






- Altitudine del aeroporto : 235 ft
- Codice IATA : BZG


EPBY - Bydgoszcz

ULTIMO METAR :
  • 301600Z 31012KT CAVOK 05/M10 Q1021

METARs OBSOLETI :
  • 301430Z 29013KT CAVOK 06/M10 Q1021
  • 301400Z 30011KT 250V350 CAVOK 05/M11 Q1021
  • 301330Z 29010KT 270V330 CAVOK 06/M11 Q1021

TAF TAF EPBY
Valido dal 30 a 12 ore il 31 a 12 ore UTC


301130Z 3012/3112 28010KT 9999 BKN040
TEMPO 3016/3101 4000 SNRA BKN007 BKN014
PROB30
TEMPO 3018/3101 33015G25KT 2000 SHSN BKN004 BKN010CB
BECMG 3020/3022 35010KT
BECMG 3101/3103 CAVOK



MetMap, La meteo Aeronautica in un colpo d'occhio ! - Copyright ORBIFLY Dicembre 2007 - Disclaimer

ORBIFLY MET'MAP TEAM :

Programmazione e sviluppo : Alexandra Zaïnal
Concezione : Baudouin d'Aumeries
Aiuto per la programmazione : Marc-Olivier Méhu
Supporto tecnico e logistico : Manuel Goepfert
Aiuto per la traduzione : Arnaldo La Scala

Contatto : metmap@orbifly.com




FONTI E CREDITI :

   NOAA